Time;durP1;ratioP1;P1;durP2;ratioP2;P2;SDS_P1;SDS_P2;PMS_P1;PMS_P2;Temp;Humidity;BMP_temperature;BMP_pressure;BME280_temperature;BME280_humidity;BME280_pressure;Samples;Min_cycle;Max_cycle;Signal;HPM_P1;HPM_P2
2021/12/04 00:01:55;;;;;;;7.57;6.97;;;2.70;99.90;;;;;;4921438;29;20708;-60
2021/12/04 00:04:27;;;;;;;8.52;7.63;;;2.70;99.90;;;;;;4935751;29;20225;-61
2021/12/04 00:06:55;;;;;;;6.50;5.90;;;2.70;99.90;;;;;;4934143;29;20665;-61
2021/12/04 00:09:24;;;;;;;7.40;6.70;;;2.70;99.90;;;;;;4937903;29;20661;-60
2021/12/04 00:11:55;;;;;;;6.32;5.82;;;2.80;99.90;;;;;;4948724;28;20219;-61
2021/12/04 00:14:23;;;;;;;6.63;6.10;;;2.80;99.90;;;;;;4944019;28;20219;-61
2021/12/04 00:16:52;;;;;;;7.72;6.93;;;2.80;99.90;;;;;;4934494;28;20207;-61
2021/12/04 00:19:20;;;;;;;9.27;7.45;;;2.80;99.90;;;;;;4945661;28;20358;-61
2021/12/04 00:21:48;;;;;;;9.07;6.53;;;2.80;99.90;;;;;;4935478;28;20247;-62
2021/12/04 00:24:16;;;;;;;6.75;6.25;;;2.80;99.90;;;;;;4940939;28;20677;-60
2021/12/04 00:26:47;;;;;;;6.45;5.85;;;2.70;99.90;;;;;;4939312;28;20250;-58
2021/12/04 00:29:14;;;;;;;9.05;7.20;;;2.70;99.90;;;;;;4954616;28;20311;-59
2021/12/04 00:31:47;;;;;;;7.50;7.00;;;2.70;99.90;;;;;;4962961;28;20226;-60
2021/12/04 00:34:15;;;;;;;7.43;6.78;;;2.80;99.90;;;;;;4940994;29;20294;-60
2021/12/04 00:37:00;;;;;;;7.35;6.63;;;2.70;99.90;;;;;;4951158;29;20241;-60
2021/12/04 00:50:32;;;;;;;8.88;7.68;;;2.40;99.90;;;;;;4952835;28;20557;-60
2021/12/04 00:53:00;;;;;;;9.27;7.45;;;2.30;99.90;;;;;;4976296;22;20218;-71
2021/12/04 00:55:28;;;;;;;7.80;7.10;;;2.30;99.90;;;;;;5043865;28;20676;-70
2021/12/04 00:57:57;;;;;;;7.82;7.13;;;2.20;99.90;;;;;;5057775;28;20223;-69
2021/12/04 01:00:25;;;;;;;8.35;7.65;;;2.20;99.90;;;;;;5053424;28;20200;-69
2021/12/04 01:02:53;;;;;;;8.40;7.60;;;2.10;99.90;;;;;;5050898;28;20230;-69
2021/12/04 01:05:22;;;;;;;8.52;7.47;;;2.10;99.90;;;;;;5050734;28;20283;-68
2021/12/04 01:07:50;;;;;;;8.15;7.55;;;2.10;99.90;;;;;;5051108;28;20216;-69
2021/12/04 01:10:18;;;;;;;10.95;6.93;;;2.00;99.90;;;;;;5051431;28;20642;-69
2021/12/04 01:12:46;;;;;;;8.23;7.53;;;2.00;99.90;;;;;;5039403;28;20213;-68
2021/12/04 01:15:15;;;;;;;9.25;8.35;;;2.00;99.90;;;;;;5034988;28;20279;-69
2021/12/04 01:17:43;;;;;;;11.85;7.47;;;1.90;99.90;;;;;;5040813;28;20265;-69
2021/12/04 01:20:12;;;;;;;8.43;7.63;;;1.90;99.90;;;;;;5054644;28;20220;-70
2021/12/04 01:22:40;;;;;;;9.30;8.07;;;1.90;99.90;;;;;;5054659;28;20192;-69
2021/12/04 01:25:09;;;;;;;11.85;9.00;;;1.90;99.90;;;;;;5054677;28;20192;-70
2021/12/04 01:27:37;;;;;;;8.45;7.70;;;1.90;99.90;;;;;;5054781;28;20188;-67
2021/12/04 01:30:07;;;;;;;9.20;8.30;;;1.90;99.90;;;;;;5053482;28;20192;-70
2021/12/04 01:32:36;;;;;;;8.30;7.60;;;1.90;99.90;;;;;;5052955;28;20230;-70
2021/12/04 01:35:04;;;;;;;8.52;7.68;;;1.90;99.90;;;;;;5054163;28;20243;-70
2021/12/04 01:37:32;;;;;;;9.85;7.45;;;1.90;99.90;;;;;;5054681;28;20237;-70
2021/12/04 01:40:00;;;;;;;9.65;8.63;;;1.90;99.90;;;;;;5053324;28;20220;-69
2021/12/04 01:42:29;;;;;;;8.43;7.65;;;1.90;99.90;;;;;;5055321;28;20200;-69
2021/12/04 01:44:57;;;;;;;11.55;8.27;;;2.00;99.90;;;;;;5054209;28;20723;-69
2021/12/04 01:47:25;;;;;;;9.00;8.10;;;2.00;99.90;;;;;;5068895;28;20287;-69
2021/12/04 01:49:55;;;;;;;9.00;8.20;;;1.90;99.90;;;;;;5054350;28;20227;-70
2021/12/04 01:52:23;;;;;;;10.35;9.38;;;1.90;99.90;;;;;;5044595;28;20283;-69
2021/12/04 01:54:56;;;;;;;9.07;8.27;;;1.80;99.90;;;;;;5051534;28;20238;-69
2021/12/04 01:57:24;;;;;;;9.88;8.95;;;1.90;99.90;;;;;;5048906;28;20692;-70
2021/12/04 01:59:53;;;;;;;9.65;8.85;;;1.80;99.90;;;;;;5053229;28;20253;-71
2021/12/04 02:02:21;;;;;;;8.65;7.95;;;1.80;99.90;;;;;;5052729;28;20301;-70
2021/12/04 02:04:50;;;;;;;9.40;8.05;;;1.70;99.90;;;;;;5048588;28;20721;-70
2021/12/04 02:07:20;;;;;;;10.18;9.15;;;1.80;99.90;;;;;;5048829;28;20192;-70
2021/12/04 02:09:48;;;;;;;9.60;8.70;;;1.80;99.90;;;;;;5053496;28;20253;-70
2021/12/04 02:12:16;;;;;;;9.60;8.65;;;1.80;99.90;;;;;;5053754;28;20254;-70
2021/12/04 02:14:44;;;;;;;12.60;8.98;;;1.80;99.90;;;;;;5033597;28;20688;-69
2021/12/04 02:17:12;;;;;;;10.13;9.23;;;1.80;99.90;;;;;;5048771;28;20196;-72
2021/12/04 02:19:40;;;;;;;9.50;8.70;;;1.80;99.90;;;;;;5052302;28;20629;-70
2021/12/04 02:22:10;;;;;;;11.45;9.15;;;1.90;99.90;;;;;;5054616;28;20200;-70
2021/12/04 02:24:38;;;;;;;8.35;7.75;;;2.00;99.90;;;;;;5056751;28;20637;-71
2021/12/04 02:27:06;;;;;;;10.55;9.65;;;2.00;99.90;;;;;;5053909;28;20230;-70
2021/12/04 02:29:34;;;;;;;8.98;8.27;;;2.10;99.90;;;;;;5053822;28;20251;-71
2021/12/04 02:32:03;;;;;;;8.60;7.80;;;2.20;99.90;;;;;;5053534;28;20615;-70
2021/12/04 02:34:31;;;;;;;11.88;10.50;;;2.20;99.90;;;;;;5053121;28;20258;-72
2021/12/04 02:37:00;;;;;;;11.00;10.05;;;2.20;99.90;;;;;;5053535;28;20560;-69
2021/12/04 02:39:34;;;;;;;9.05;8.40;;;2.20;99.90;;;;;;5053110;28;20218;-70
2021/12/04 02:42:05;;;;;;;8.50;7.90;;;2.20;99.90;;;;;;5053420;28;20227;-67
2021/12/04 02:44:39;;;;;;;8.85;8.15;;;2.20;99.90;;;;;;5052988;28;20689;-69
2021/12/04 02:47:08;;;;;;;8.93;8.23;;;2.20;99.90;;;;;;5052624;28;20314;-69
2021/12/04 02:49:36;;;;;;;8.10;7.57;;;2.20;99.90;;;;;;5051232;28;20231;-71
2021/12/04 02:52:05;;;;;;;7.43;6.80;;;2.10;99.90;;;;;;5051426;28;20203;-71
2021/12/04 02:54:35;;;;;;;8.75;8.15;;;2.20;99.90;;;;;;5051328;28;20321;-69
2021/12/04 02:57:05;;;;;;;8.10;7.50;;;2.20;99.90;;;;;;5045626;28;20623;-70
2021/12/04 02:59:34;;;;;;;9.15;8.55;;;2.20;99.90;;;;;;5049256;28;20235;-70
2021/12/04 03:02:02;;;;;;;8.00;7.50;;;2.20;99.90;;;;;;5045789;28;20267;-70
2021/12/04 03:04:33;;;;;;;9.27;8.48;;;2.30;99.90;;;;;;5050637;28;20210;-69
2021/12/04 03:07:01;;;;;;;8.48;7.85;;;2.20;99.90;;;;;;5051921;28;20271;-70
2021/12/04 03:09:29;;;;;;;10.05;9.25;;;2.20;99.90;;;;;;5050825;28;20254;-69
2021/12/04 03:12:01;;;;;;;8.73;8.02;;;2.30;99.90;;;;;;5046953;28;20224;-69
2021/12/04 03:14:29;;;;;;;9.38;8.57;;;2.20;99.90;;;;;;5047755;28;20223;-70
2021/12/04 03:16:57;;;;;;;10.45;9.57;;;2.30;99.90;;;;;;5043802;28;20233;-69
2021/12/04 03:19:26;;;;;;;9.98;9.18;;;2.10;99.90;;;;;;5048770;28;20228;-70
2021/12/04 03:21:54;;;;;;;9.48;8.77;;;2.10;99.90;;;;;;5051528;28;20278;-70
2021/12/04 03:24:24;;;;;;;9.65;8.95;;;2.10;99.90;;;;;;5042769;28;20666;-71
2021/12/04 03:26:52;;;;;;;9.40;8.70;;;2.10;99.90;;;;;;5049467;28;20204;-70
2021/12/04 03:29:24;;;;;;;8.60;7.90;;;2.50;99.90;;;;;;5043049;28;20581;-70
2021/12/04 03:40:49;;;;;;;10.77;9.88;;;2.10;99.90;;;;;;5004296;28;20229;-70
2021/12/04 03:43:17;;;;;;;9.65;8.82;;;2.00;99.90;;;;;;5039294;28;20227;-70
2021/12/04 03:45:53;;;;;;;10.50;9.60;;;2.00;99.90;;;;;;5047530;28;20342;-70
2021/12/04 03:51:08;;;;;;;10.95;10.13;;;1.90;99.90;;;;;;5044764;28;20595;-70
2021/12/04 03:53:36;;;;;;;11.48;10.48;;;1.80;99.90;;;;;;5045769;28;20250;-69
2021/12/04 03:56:06;;;;;;;10.32;9.43;;;1.80;99.90;;;;;;5044538;28;20219;-70
2021/12/04 03:58:34;;;;;;;10.98;10.07;;;1.90;99.90;;;;;;5048776;28;20227;-70
2021/12/04 04:01:03;;;;;;;11.00;10.10;;;1.80;99.90;;;;;;5044793;28;20226;-70
2021/12/04 04:03:31;;;;;;;10.32;9.50;;;1.80;99.90;;;;;;5042164;28;20221;-72
2021/12/04 04:05:59;;;;;;;11.05;10.20;;;1.80;99.90;;;;;;5042698;28;20620;-69
2021/12/04 04:08:27;;;;;;;13.48;12.25;;;1.80;99.90;;;;;;5036863;28;20632;-70
2021/12/04 04:10:55;;;;;;;12.23;11.23;;;1.70;99.90;;;;;;5045980;28;20292;-71
2021/12/04 04:13:23;;;;;;;13.40;12.25;;;1.80;99.90;;;;;;5048488;28;20243;-70
2021/12/04 04:15:51;;;;;;;11.10;10.23;;;1.80;99.90;;;;;;5049236;28;20306;-70
2021/12/04 04:18:21;;;;;;;10.02;9.30;;;1.80;99.90;;;;;;5051557;28;20188;-71
2021/12/04 04:20:49;;;;;;;11.32;10.52;;;1.80;99.90;;;;;;5051492;28;20282;-69
2021/12/04 04:23:17;;;;;;;11.80;10.90;;;1.70;99.90;;;;;;5051323;28;20220;-69
2021/12/04 04:25:45;;;;;;;11.45;10.48;;;1.70;99.90;;;;;;5051118;28;20188;-69
2021/12/04 04:28:13;;;;;;;11.95;11.05;;;1.70;99.90;;;;;;5051524;28;20264;-70
2021/12/04 04:30:41;;;;;;;12.43;11.43;;;1.60;99.90;;;;;;5051429;28;20673;-70
2021/12/04 04:33:11;;;;;;;13.10;12.10;;;1.70;99.90;;;;;;5051108;28;20751;-70
2021/12/04 04:35:41;;;;;;;12.05;11.13;;;1.70;99.90;;;;;;5051139;28;20212;-70
2021/12/04 04:38:19;;;;;;;11.48;10.57;;;1.80;99.90;;;;;;5051357;28;20254;-69
2021/12/04 04:57:46;;;;;;;11.48;10.68;;;2.20;99.90;;;;;;5031398;28;20196;-70
2021/12/04 05:00:25;;;;;;;12.18;11.27;;;2.20;99.90;;;;;;5049572;28;20200;-69
2021/12/04 05:11:15;;;;;;;12.65;11.55;;;2.30;99.90;;;;;;5050973;28;20257;-70
2021/12/04 05:13:43;;;;;;;12.00;11.10;;;2.30;99.90;;;;;;5050283;28;20239;-70
2021/12/04 05:16:13;;;;;;;11.68;10.77;;;2.30;99.90;;;;;;5050639;28;20302;-70
2021/12/04 05:18:44;;;;;;;12.43;11.52;;;2.20;99.90;;;;;;5050791;28;20204;-70
2021/12/04 05:21:13;;;;;;;11.20;10.40;;;2.20;99.90;;;;;;5050624;28;20219;-71
2021/12/04 05:23:45;;;;;;;13.77;12.70;;;2.20;99.90;;;;;;5050242;28;20289;-71
2021/12/04 05:26:16;;;;;;;14.35;13.25;;;2.20;99.90;;;;;;5049524;28;20400;-69
2021/12/04 05:28:45;;;;;;;14.15;13.05;;;2.20;99.90;;;;;;5050922;28;20200;-70
2021/12/04 05:31:13;;;;;;;14.75;13.48;;;2.20;99.90;;;;;;5050977;28;20207;-70
2021/12/04 05:33:42;;;;;;;14.50;13.30;;;2.20;99.90;;;;;;5050333;28;20219;-70
2021/12/04 05:36:10;;;;;;;16.67;15.32;;;2.20;99.90;;;;;;5050226;28;20240;-70
2021/12/04 05:38:39;;;;;;;14.82;13.65;;;2.20;99.90;;;;;;5050693;28;20224;-70
2021/12/04 05:41:09;;;;;;;16.30;14.75;;;2.20;99.90;;;;;;5050824;28;20242;-69
2021/12/04 05:43:37;;;;;;;14.40;13.20;;;2.30;99.90;;;;;;5050118;28;20211;-67
2021/12/04 05:46:12;;;;;;;14.10;12.95;;;2.30;99.90;;;;;;5050542;28;20184;-68
2021/12/04 05:48:46;;;;;;;13.98;12.80;;;2.30;99.90;;;;;;5049653;28;20207;-68
2021/12/04 05:51:31;;;;;;;15.38;14.10;;;2.40;99.90;;;;;;5050342;28;20239;-68
2021/12/04 05:54:06;;;;;;;15.00;13.80;;;2.40;99.90;;;;;;5050444;28;20227;-71
2021/12/04 05:56:36;;;;;;;16.65;15.15;;;2.40;99.90;;;;;;5051449;28;20690;-68
2021/12/04 05:59:05;;;;;;;17.13;15.63;;;2.40;99.90;;;;;;5054173;28;20204;-68
2021/12/04 06:01:33;;;;;;;14.68;13.38;;;2.40;99.90;;;;;;5054033;28;20199;-68
2021/12/04 06:04:01;;;;;;;15.65;14.25;;;2.30;99.90;;;;;;5053207;28;20274;-72
2021/12/04 06:06:30;;;;;;;18.23;16.63;;;2.30;99.90;;;;;;5054148;28;20196;-68
2021/12/04 06:09:04;;;;;;;18.40;16.90;;;2.30;99.90;;;;;;5053760;28;20206;-68
2021/12/04 06:11:32;;;;;;;26.05;23.83;;;2.30;99.90;;;;;;5053998;28;20192;-70
2021/12/04 06:14:01;;;;;;;22.75;20.65;;;2.30;99.90;;;;;;5053374;28;20216;-67
2021/12/04 06:16:29;;;;;;;20.02;18.20;;;2.30;99.90;;;;;;5053526;28;20224;-68
2021/12/04 06:18:59;;;;;;;18.75;16.95;;;2.20;99.90;;;;;;5053498;28;20227;-69
2021/12/04 06:24:12;;;;;;;19.45;17.58;;;2.00;99.90;;;;;;5052753;28;20243;-68
2021/12/04 06:26:40;;;;;;;18.35;16.70;;;1.90;99.90;;;;;;5053756;28;20238;-69
2021/12/04 06:29:09;;;;;;;20.38;18.42;;;1.90;99.90;;;;;;5053380;28;20607;-68
2021/12/04 06:31:37;;;;;;;18.27;16.58;;;1.90;99.90;;;;;;5053395;28;20753;-68
2021/12/04 06:34:05;;;;;;;20.40;18.50;;;1.90;99.90;;;;;;5052427;28;20294;-68
2021/12/04 06:36:35;;;;;;;20.08;18.17;;;2.00;99.90;;;;;;5053505;28;20220;-70
2021/12/04 06:39:03;;;;;;;19.48;17.67;;;2.00;99.90;;;;;;5053318;28;20254;-68
2021/12/04 06:41:31;;;;;;;19.30;17.50;;;1.90;99.90;;;;;;5053186;28;20266;-68
2021/12/04 06:43:59;;;;;;;18.45;16.73;;;1.90;99.90;;;;;;5052386;28;20220;-68
2021/12/04 06:46:29;;;;;;;23.27;19.02;;;1.90;99.90;;;;;;5053096;28;20669;-68
2021/12/04 06:49:04;;;;;;;22.50;20.23;;;1.80;99.90;;;;;;5052810;28;20192;-68
2021/12/04 06:51:35;;;;;;;21.63;19.25;;;1.70;99.90;;;;;;5053156;28;20303;-68
2021/12/04 06:54:05;;;;;;;20.83;18.83;;;1.70;99.90;;;;;;5052144;28;20294;-67
2021/12/04 06:56:35;;;;;;;20.90;18.80;;;1.70;99.90;;;;;;5076456;22;20259;-61
2021/12/04 06:59:07;;;;;;;21.00;18.90;;;1.70;99.90;;;;;;5055042;28;20199;-60
2021/12/04 07:01:38;;;;;;;20.95;18.55;;;1.70;99.90;;;;;;5040207;28;20223;-61
2021/12/04 07:04:07;;;;;;;22.85;20.55;;;1.70;99.90;;;;;;5032792;28;20200;-60
2021/12/04 07:06:35;;;;;;;20.77;18.77;;;1.70;99.90;;;;;;5042155;28;20252;-60
2021/12/04 07:09:06;;;;;;;19.58;17.67;;;1.70;99.90;;;;;;5032445;28;20221;-60
2021/12/04 07:11:34;;;;;;;22.25;20.13;;;1.70;99.90;;;;;;5032626;28;20199;-60
2021/12/04 07:14:02;;;;;;;21.58;19.52;;;1.70;99.90;;;;;;5028077;28;20692;-61
2021/12/04 07:16:30;;;;;;;21.80;19.63;;;1.70;99.90;;;;;;5032267;28;20732;-61
2021/12/04 07:18:59;;;;;;;21.15;19.15;;;1.80;99.90;;;;;;5035795;28;20220;-60
2021/12/04 07:21:27;;;;;;;20.60;18.60;;;1.80;99.90;;;;;;5032318;28;20555;-60
2021/12/04 07:23:55;;;;;;;19.92;18.13;;;1.90;99.90;;;;;;5031685;28;20199;-60
2021/12/04 07:26:23;;;;;;;22.38;20.17;;;1.90;99.90;;;;;;5032211;28;20244;-61
2021/12/04 07:28:51;;;;;;;21.05;19.13;;;1.90;99.90;;;;;;5032059;28;20285;-61
2021/12/04 07:31:19;;;;;;;20.98;18.88;;;1.90;99.90;;;;;;5032134;28;20231;-61
2021/12/04 07:33:49;;;;;;;21.95;19.85;;;1.90;99.90;;;;;;5031678;28;20197;-60
2021/12/04 07:36:19;;;;;;;21.48;19.48;;;1.80;99.90;;;;;;5031529;28;20216;-61
2021/12/04 07:38:47;;;;;;;20.70;18.95;;;1.80;99.90;;;;;;5032044;28;20236;-61
2021/12/04 07:41:15;;;;;;;20.92;18.92;;;1.90;99.90;;;;;;5032186;28;20624;-61
2021/12/04 07:43:43;;;;;;;21.73;19.65;;;1.90;99.90;;;;;;5030995;28;20247;-61
2021/12/04 07:46:11;;;;;;;23.45;21.27;;;1.90;99.90;;;;;;5031671;28;20215;-61
2021/12/04 07:48:39;;;;;;;20.80;18.70;;;2.00;99.90;;;;;;5031862;28;20240;-61
2021/12/04 07:51:07;;;;;;;22.58;20.48;;;2.10;99.90;;;;;;5038873;28;20274;-63
2021/12/04 07:53:36;;;;;;;22.30;20.20;;;2.10;99.90;;;;;;5052205;28;20216;-60
2021/12/04 07:56:06;;;;;;;20.40;18.40;;;2.10;99.90;;;;;;5033481;28;20315;-62
2021/12/04 07:58:35;;;;;;;20.80;18.70;;;2.00;99.90;;;;;;5028962;28;20254;-61
2021/12/04 08:01:03;;;;;;;21.23;19.20;;;2.00;99.90;;;;;;5031988;28;20660;-61
2021/12/04 08:03:31;;;;;;;22.05;19.85;;;2.00;99.90;;;;;;5032993;28;20205;-62
2021/12/04 08:05:59;;;;;;;21.63;19.63;;;2.00;99.90;;;;;;5039733;28;20291;-62
2021/12/04 08:08:27;;;;;;;22.48;20.38;;;2.00;99.90;;;;;;5035686;28;20287;-62
2021/12/04 08:10:57;;;;;;;20.40;18.63;;;2.00;99.90;;;;;;5028103;28;20199;-62
2021/12/04 08:13:25;;;;;;;20.75;18.75;;;2.00;99.90;;;;;;5031205;28;20255;-61
2021/12/04 08:15:53;;;;;;;20.13;18.33;;;2.00;99.90;;;;;;5030832;28;20663;-61
2021/12/04 08:18:21;;;;;;;22.35;20.35;;;2.00;99.90;;;;;;5031264;28;21715;-61
2021/12/04 08:20:50;;;;;;;19.90;18.00;;;2.00;99.90;;;;;;5033196;28;20935;-62
2021/12/04 08:23:18;;;;;;;22.30;20.10;;;2.00;99.90;;;;;;5032962;28;20254;-62
2021/12/04 08:25:47;;;;;;;23.75;21.27;;;2.00;99.90;;;;;;5031485;28;20221;-62
2021/12/04 08:28:17;;;;;;;23.38;21.08;;;2.00;99.90;;;;;;5034791;28;20718;-62
2021/12/04 08:30:45;;;;;;;33.08;29.88;;;2.00;99.90;;;;;;5036527;28;20250;-62
2021/12/04 08:33:14;;;;;;;42.58;36.65;;;2.00;99.90;;;;;;5036876;28;20673;-60
2021/12/04 08:35:42;;;;;;;25.35;22.80;;;2.00;99.90;;;;;;5039260;28;20212;-62
2021/12/04 08:38:12;;;;;;;23.05;20.77;;;2.10;99.90;;;;;;5031115;28;20207;-62
2021/12/04 08:40:41;;;;;;;24.85;21.52;;;2.10;99.90;;;;;;5030564;28;20192;-61
2021/12/04 08:43:10;;;;;;;24.55;22.17;;;2.00;99.90;;;;;;5027931;28;20206;-62
2021/12/04 08:45:41;;;;;;;24.00;21.52;;;2.10;99.90;;;;;;5037998;28;20224;-62
2021/12/04 08:48:10;;;;;;;23.85;21.45;;;2.10;99.90;;;;;;5031241;28;20197;-62
2021/12/04 08:50:38;;;;;;;24.23;21.77;;;2.10;99.90;;;;;;5030718;28;20243;-62
2021/12/04 08:53:07;;;;;;;27.58;23.40;;;2.10;99.90;;;;;;5031365;28;20611;-62
2021/12/04 08:55:38;;;;;;;22.90;20.65;;;2.20;99.90;;;;;;5030497;28;20232;-59
2021/12/04 08:58:08;;;;;;;23.15;20.77;;;2.30;99.90;;;;;;5031288;28;20221;-61
2021/12/04 09:00:46;;;;;;;23.98;21.42;;;2.30;99.90;;;;;;5031522;28;20220;-61
2021/12/04 09:03:15;;;;;;;23.52;21.10;;;2.30;99.90;;;;;;5031596;28;20204;-61
2021/12/04 09:05:43;;;;;;;22.90;20.63;;;2.40;99.90;;;;;;5031012;28;20216;-61
2021/12/04 09:08:11;;;;;;;22.08;19.88;;;2.40;99.90;;;;;;5031084;28;20196;-61
2021/12/04 09:10:42;;;;;;;23.65;21.25;;;2.40;99.90;;;;;;5032766;28;20287;-62
2021/12/04 09:13:11;;;;;;;22.45;20.05;;;2.30;99.90;;;;;;5032758;28;20227;-62
2021/12/04 09:15:41;;;;;;;25.55;19.75;;;2.40;99.90;;;;;;5030871;28;20275;-61
2021/12/04 09:18:09;;;;;;;56.10;49.97;;;2.40;99.90;;;;;;5030730;28;20296;-61
2021/12/04 09:20:38;;;;;;;87.45;77.97;;;2.40;99.90;;;;;;5030590;28;20219;-62
2021/12/04 09:23:12;;;;;;;41.75;35.88;;;2.30;99.90;;;;;;5031606;28;20227;-62
2021/12/04 09:25:45;;;;;;;30.30;27.00;;;2.30;99.90;;;;;;5029006;28;20291;-61
2021/12/04 09:28:20;;;;;;;25.83;23.20;;;2.40;99.90;;;;;;5032136;28;20275;-62
2021/12/04 09:31:23;;;;;;;26.15;23.35;;;2.40;99.90;;;;;;5030325;28;20216;-61
2021/12/04 09:59:26;;;;;;;21.42;19.33;;;2.50;99.90;;;;;;5028803;28;20707;-62
2021/12/04 10:19:02;;;;;;;20.65;18.58;;;2.40;99.90;;;;;;4992954;28;20816;-62
2021/12/04 10:21:46;;;;;;;18.38;16.45;;;2.40;99.90;;;;;;5029990;28;20330;-62
2021/12/04 10:32:42;;;;;;;18.35;16.65;;;2.60;99.90;;;;;;5028257;28;20235;-62
2021/12/04 10:35:14;;;;;;;18.38;16.60;;;2.70;99.90;;;;;;5027632;28;20303;-62
2021/12/04 10:37:53;;;;;;;17.50;15.75;;;2.70;99.90;;;;;;5023114;28;20213;-61
2021/12/04 10:40:23;;;;;;;16.98;15.27;;;2.70;99.90;;;;;;5029939;28;20688;-61
2021/12/04 10:42:57;;;;;;;16.50;14.90;;;2.80;99.90;;;;;;5028543;28;20352;-62
2021/12/04 10:45:33;;;;;;;14.98;13.57;;;2.80;99.90;;;;;;5027410;28;20794;-62
2021/12/04 10:48:05;;;;;;;16.20;14.60;;;2.70;99.90;;;;;;5025061;28;20258;-61
2021/12/04 10:50:41;;;;;;;18.92;16.95;;;2.70;99.90;;;;;;5029661;28;20228;-63
2021/12/04 10:53:15;;;;;;;15.02;13.52;;;2.70;99.90;;;;;;5026537;28;20774;-63
2021/12/04 10:55:48;;;;;;;16.55;14.95;;;2.70;99.90;;;;;;5027859;28;20931;-60
2021/12/04 10:58:49;;;;;;;16.98;15.27;;;2.80;99.90;;;;;;5026954;28;20290;-63
2021/12/04 11:01:32;;;;;;;16.55;14.93;;;2.80;99.90;;;;;;5026538;28;20982;-60
2021/12/04 11:04:14;;;;;;;18.90;17.00;;;2.70;99.90;;;;;;5019919;28;20197;-63
2021/12/04 11:07:02;;;;;;;19.58;17.52;;;2.70;99.90;;;;;;5024148;28;20244;-63
2021/12/04 11:40:36;;;;;;;23.58;20.50;;;2.80;99.90;;;;;;5023012;28;20232;-62
2021/12/04 11:43:10;;;;;;;54.85;30.17;;;2.80;99.90;;;;;;5033394;28;20262;-61
2021/12/04 11:45:46;;;;;;;31.30;22.33;;;4.80;99.90;;;;;;5032718;28;20248;-61
2021/12/04 11:48:14;;;;;;;20.58;18.38;;;5.00;99.90;;;;;;5025313;28;20623;-62
2021/12/04 11:50:52;;;;;;;22.10;17.65;;;4.40;99.90;;;;;;5031550;28;20269;-62
2021/12/04 11:53:20;;;;;;;19.67;15.43;;;4.10;99.90;;;;;;5030617;28;20200;-61
2021/12/04 11:55:50;;;;;;;21.75;17.25;;;3.70;99.90;;;;;;5031393;28;20271;-62
2021/12/04 11:58:21;;;;;;;23.27;16.42;;;3.50;99.90;;;;;;5032418;28;20204;-61
2021/12/04 12:00:52;;;;;;;23.92;18.98;;;3.30;99.90;;;;;;5032174;28;20251;-62
2021/12/04 12:03:23;;;;;;;20.50;17.08;;;3.20;99.90;;;;;;5032338;28;20211;-61
2021/12/04 12:05:52;;;;;;;20.42;17.00;;;3.10;99.90;;;;;;5032136;28;20232;-62
2021/12/04 12:08:32;;;;;;;21.45;18.02;;;3.10;99.90;;;;;;5031784;28;20227;-61
2021/12/04 12:11:03;;;;;;;19.60;17.67;;;3.10;99.90;;;;;;5032269;28;20236;-61
2021/12/04 12:13:35;;;;;;;19.33;17.10;;;3.10;99.90;;;;;;5025468;28;20205;-60
2021/12/04 12:16:09;;;;;;;25.73;18.48;;;3.20;99.90;;;;;;5026898;28;20355;-61
2021/12/04 12:18:51;;;;;;;21.98;17.90;;;3.20;99.90;;;;;;5031142;28;20251;-61
2021/12/04 12:21:23;;;;;;;23.08;18.80;;;3.20;99.90;;;;;;5030956;28;20216;-62
2021/12/04 12:27:01;;;;;;;21.00;18.65;;;3.20;99.90;;;;;;5030342;28;20316;-61
2021/12/04 12:32:43;;;;;;;24.05;19.55;;;3.10;99.90;;;;;;5030885;28;20295;-61
2021/12/04 12:38:06;;;;;;;19.92;16.65;;;3.10;99.90;;;;;;5022213;28;20232;-62
2021/12/04 12:40:34;;;;;;;21.80;18.00;;;3.10;99.90;;;;;;5031719;28;20533;-61
2021/12/04 12:43:11;;;;;;;23.25;18.10;;;3.20;99.90;;;;;;5031701;28;20693;-62
2021/12/04 12:45:40;;;;;;;22.27;19.20;;;3.10;99.90;;;;;;5031197;28;20248;-61
2021/12/04 12:48:10;;;;;;;21.83;18.02;;;3.20;99.90;;;;;;5031676;28;20266;-62
2021/12/04 12:50:41;;;;;;;23.13;19.23;;;3.20;99.90;;;;;;5031313;28;20609;-61
2021/12/04 12:53:12;;;;;;;26.20;19.77;;;3.20;99.90;;;;;;5031728;28;20743;-61
2021/12/04 12:55:42;;;;;;;23.45;19.75;;;3.20;99.90;;;;;;5049592;22;20284;-69
2021/12/04 12:58:16;;;;;;;26.45;20.30;;;3.10;99.90;;;;;;5050907;28;20320;-68
2021/12/04 13:12:06;;;;;;;41.90;35.88;;;3.10;99.90;;;;;;5054924;28;20222;-69
2021/12/04 13:14:46;;;;;;;26.23;22.10;;;3.10;99.90;;;;;;5054849;28;20191;-67
2021/12/04 13:17:17;;;;;;;50.03;44.65;;;3.00;99.90;;;;;;5055073;28;20215;-67
2021/12/04 13:19:48;;;;;;;28.17;24.52;;;3.00;99.90;;;;;;5054242;28;20247;-70
2021/12/04 13:22:19;;;;;;;21.05;18.65;;;3.00;99.90;;;;;;5054487;28;20206;-67
2021/12/04 13:24:50;;;;;;;22.50;18.60;;;3.00;99.90;;;;;;5054599;28;20207;-67
2021/12/04 13:29:51;;;;;;;19.98;17.67;;;3.10;99.90;;;;;;5054862;28;20231;-67
2021/12/04 13:32:32;;;;;;;18.20;16.40;;;3.10;99.90;;;;;;5054725;28;20238;-68
2021/12/04 13:35:06;;;;;;;18.25;16.25;;;3.10;99.90;;;;;;5049894;28;20199;-67
2021/12/04 13:37:35;;;;;;;19.20;17.13;;;3.10;99.90;;;;;;5046706;28;20216;-68
2021/12/04 13:40:07;;;;;;;43.55;38.88;;;3.20;99.90;;;;;;5045218;28;20252;-69
2021/12/04 13:42:37;;;;;;;20.65;18.45;;;3.30;99.90;;;;;;5045018;28;20700;-68
2021/12/04 13:45:07;;;;;;;19.33;17.20;;;3.30;99.90;;;;;;5051492;28;20779;-66
2021/12/04 13:47:38;;;;;;;17.70;15.60;;;3.30;99.90;;;;;;5043654;28;20708;-67
2021/12/04 13:52:50;;;;;;;20.42;18.23;;;3.30;99.90;;;;;;5047946;28;20211;-71
2021/12/04 13:55:18;;;;;;;19.60;17.27;;;3.30;99.90;;;;;;5045435;28;20279;-67
2021/12/04 13:57:46;;;;;;;16.10;14.60;;;3.30;99.90;;;;;;5045754;28;20703;-68
2021/12/04 14:00:17;;;;;;;14.25;12.95;;;3.30;99.90;;;;;;5040098;28;20303;-66
2021/12/04 14:02:46;;;;;;;12.23;11.10;;;3.30;99.90;;;;;;5039709;28;20193;-67
2021/12/04 14:05:17;;;;;;;11.90;10.80;;;3.40;99.90;;;;;;5048390;28;20196;-68
2021/12/04 14:07:49;;;;;;;13.00;11.70;;;3.50;99.90;;;;;;5052197;28;20212;-70
2021/12/04 14:10:21;;;;;;;13.57;11.60;;;3.60;99.90;;;;;;5046068;28;20228;-69
2021/12/04 14:12:50;;;;;;;10.43;9.52;;;3.60;99.90;;;;;;5042252;28;20220;-70
2021/12/04 14:15:20;;;;;;;9.05;8.25;;;3.60;99.90;;;;;;5042582;28;20207;-66
2021/12/04 14:17:52;;;;;;;12.23;11.13;;;3.50;99.90;;;;;;5039057;28;20208;-66
2021/12/04 14:20:23;;;;;;;21.80;17.38;;;3.50;99.90;;;;;;5044959;28;20645;-69
2021/12/04 14:22:52;;;;;;;14.88;13.38;;;3.40;99.90;;;;;;5047224;28;20235;-68
2021/12/04 14:25:22;;;;;;;16.77;15.18;;;3.40;99.90;;;;;;5042075;28;20208;-69
2021/12/04 14:27:51;;;;;;;42.13;30.48;;;3.40;99.90;;;;;;5046058;28;20223;-70
2021/12/04 14:30:21;;;;;;;39.08;27.35;;;3.40;99.90;;;;;;5049099;28;20192;-68
2021/12/04 14:32:54;;;;;;;30.50;21.30;;;3.50;99.90;;;;;;5045896;28;20251;-68
2021/12/04 14:35:30;;;;;;;25.60;17.55;;;3.50;99.90;;;;;;5038587;28;20223;-69
2021/12/04 14:38:16;;;;;;;17.65;14.63;;;3.60;99.90;;;;;;5050214;28;20759;-68
2021/12/04 14:40:47;;;;;;;32.92;22.92;;;3.60;99.90;;;;;;5052370;28;20306;-68
2021/12/04 14:43:18;;;;;;;19.98;13.35;;;3.70;99.90;;;;;;5045060;28;20760;-68
2021/12/04 14:45:49;;;;;;;11.35;10.27;;;3.60;99.90;;;;;;5050580;28;20216;-69
2021/12/04 14:48:21;;;;;;;10.60;9.70;;;3.60;99.90;;;;;;5044282;28;20220;-65
2021/12/04 14:50:52;;;;;;;13.98;12.70;;;3.60;99.90;;;;;;5049304;28;20259;-68
2021/12/04 14:53:22;;;;;;;17.98;16.23;;;3.60;99.90;;;;;;5050421;28;20257;-69
2021/12/04 14:55:52;;;;;;;14.20;12.85;;;3.70;99.90;;;;;;5040171;28;20319;-69
2021/12/04 14:58:22;;;;;;;11.38;10.38;;;3.80;99.90;;;;;;5044797;28;20212;-69
2021/12/04 15:00:52;;;;;;;12.13;10.98;;;3.80;99.90;;;;;;5044149;28;20244;-68
2021/12/04 15:03:31;;;;;;;11.30;10.23;;;3.90;99.90;;;;;;5044868;28;20196;-70
2021/12/04 15:06:04;;;;;;;17.65;13.98;;;3.90;99.90;;;;;;5046421;28;20263;-69
2021/12/04 15:08:36;;;;;;;14.90;12.88;;;3.90;99.90;;;;;;5051560;28;20199;-68
2021/12/04 15:11:06;;;;;;;9.57;8.68;;;4.00;99.90;;;;;;5046147;28;20280;-68
2021/12/04 15:13:38;;;;;;;9.60;8.70;;;4.00;99.90;;;;;;5051161;28;20200;-68
2021/12/04 15:16:07;;;;;;;7.93;7.20;;;4.10;99.90;;;;;;5041834;28;20221;-65
2021/12/04 15:18:41;;;;;;;6.93;6.35;;;4.20;99.90;;;;;;5048631;28;20196;-67
2021/12/04 15:21:39;;;;;;;7.35;6.75;;;4.30;99.90;;;;;;5043045;28;20223;-65
2021/12/04 15:24:12;;;;;;;10.15;9.10;;;4.30;99.90;;;;;;5050294;28;20219;-67
2021/12/04 15:26:41;;;;;;;16.17;14.57;;;4.40;99.90;;;;;;5049738;28;20308;-66
2021/12/04 15:29:18;;;;;;;14.40;13.00;;;4.40;99.90;;;;;;5047471;28;20661;-67
2021/12/04 15:31:48;;;;;;;9.82;8.82;;;4.40;99.90;;;;;;5059270;28;20204;-67
2021/12/04 15:34:28;;;;;;;13.95;12.55;;;4.40;99.90;;;;;;5057706;28;20653;-66
2021/12/04 15:37:01;;;;;;;10.25;7.97;;;4.40;99.90;;;;;;5052461;28;20243;-67
2021/12/04 15:39:37;;;;;;;7.90;7.10;;;4.40;99.90;;;;;;5047828;28;20192;-67